createdAt,value
2019-03-16T00:01:17.973Z,7.33
2019-03-16T00:03:49.178Z,7.36
2019-03-16T00:06:20.133Z,7.32
2019-03-16T00:08:51.079Z,7.32
2019-03-16T00:11:21.962Z,7.30
2019-03-16T00:13:53.219Z,7.25
2019-03-16T00:16:24.127Z,7.30
2019-03-16T00:18:55.106Z,7.25
2019-03-16T00:21:26.466Z,7.30
2019-03-16T00:23:57.310Z,7.22
2019-03-16T00:26:39.322Z,7.28
2019-03-16T00:29:11.636Z,7.28
2019-03-16T00:31:42.963Z,7.26
2019-03-16T00:34:14.138Z,7.20
2019-03-16T00:36:45.566Z,7.30
2019-03-16T00:39:16.512Z,7.29
2019-03-16T00:41:47.374Z,7.37
2019-03-16T00:44:18.263Z,7.35
2019-03-16T00:46:49.631Z,7.30
2019-03-16T00:49:21.819Z,7.25
2019-03-16T00:51:52.696Z,7.26
2019-03-16T00:54:23.692Z,7.27
2019-03-16T00:56:54.537Z,7.31
2019-03-16T00:59:25.430Z,7.24
2019-03-16T01:01:56.885Z,7.24
2019-03-16T01:04:28.632Z,7.29
2019-03-16T01:06:59.894Z,7.30
2019-03-16T01:09:30.805Z,7.19
2019-03-16T01:12:02.072Z,7.18
2019-03-16T01:14:32.926Z,7.15
2019-03-16T01:17:04.184Z,7.16
2019-03-16T01:19:35.416Z,7.11
2019-03-16T01:22:07.089Z,7.12
2019-03-16T01:24:37.929Z,7.14
2019-03-16T01:27:09.606Z,7.07
2019-03-16T01:29:40.525Z,7.02
2019-03-16T01:32:11.709Z,7.00
2019-03-16T01:34:44.330Z,7.03
2019-03-16T01:37:15.425Z,7.09
2019-03-16T01:39:46.872Z,7.04
2019-03-16T01:42:17.983Z,6.93
2019-03-16T01:44:49.119Z,7.03
2019-03-16T01:47:19.957Z,6.98
2019-03-16T01:49:50.981Z,6.88
2019-03-16T01:52:21.939Z,6.90
2019-03-16T01:54:53.187Z,6.85
2019-03-16T01:57:24.378Z,6.84
2019-03-16T01:59:55.553Z,6.80
2019-03-16T02:02:32.617Z,6.85
2019-03-16T02:05:07.636Z,6.85
2019-03-16T02:07:38.720Z,6.87
2019-03-16T02:10:09.922Z,6.92
2019-03-16T02:12:40.814Z,6.86
2019-03-16T02:15:11.843Z,6.87
2019-03-16T02:17:42.703Z,6.86
2019-03-16T02:20:13.936Z,6.89
2019-03-16T02:22:46.382Z,6.91
2019-03-16T02:25:17.339Z,6.87
2019-03-16T02:27:48.436Z,6.92
2019-03-16T02:30:19.444Z,6.95
2019-03-16T02:32:50.305Z,6.94
2019-03-16T02:35:21.402Z,6.93
2019-03-16T02:37:53.053Z,6.92
2019-03-16T02:40:26.067Z,6.94
2019-03-16T02:42:57.022Z,6.90
2019-03-16T02:45:28.174Z,6.89
2019-03-16T02:47:59.765Z,6.91
2019-03-16T02:50:31.013Z,6.98
2019-03-16T02:53:03.288Z,6.91
2019-03-16T02:55:34.237Z,6.94
2019-03-16T02:58:05.427Z,6.91
2019-03-16T03:00:37.018Z,6.96
2019-03-16T03:03:08.630Z,6.91
2019-03-16T03:05:39.642Z,6.92
2019-03-16T03:08:10.920Z,6.83
2019-03-16T03:10:41.748Z,6.90
2019-03-16T03:13:13.836Z,6.98
2019-03-16T03:15:45.056Z,6.93
2019-03-16T03:18:17.035Z,6.86
2019-03-16T03:20:47.869Z,6.87
2019-03-16T03:23:18.892Z,6.95
2019-03-16T03:25:50.321Z,6.91
2019-03-16T03:28:21.446Z,6.87
2019-03-16T03:30:52.696Z,6.93
2019-03-16T03:33:23.536Z,6.90
2019-03-16T03:35:54.440Z,6.87
2019-03-16T03:38:25.730Z,6.93
2019-03-16T03:41:01.227Z,6.91
2019-03-16T03:43:29.740Z,6.95
2019-03-16T03:46:01.012Z,6.94
2019-03-16T03:48:32.099Z,6.91
2019-03-16T03:51:03.438Z,6.93
2019-03-16T03:53:34.749Z,6.98
2019-03-16T03:56:05.669Z,6.96
2019-03-16T03:58:36.630Z,7.05
2019-03-16T04:01:07.602Z,6.95
2019-03-16T04:03:38.795Z,6.96
2019-03-16T04:06:09.966Z,6.99
2019-03-16T04:08:41.212Z,6.94
2019-03-16T04:11:12.077Z,6.83
2019-03-16T04:13:42.941Z,6.89
2019-03-16T04:16:13.845Z,6.88
2019-03-16T04:18:45.162Z,6.88
2019-03-16T04:21:16.117Z,6.84
2019-03-16T04:23:47.497Z,6.82
2019-03-16T04:26:19.176Z,6.85
2019-03-16T04:28:50.454Z,6.79
2019-03-16T04:31:21.291Z,6.73
2019-03-16T04:33:52.131Z,6.74
2019-03-16T04:36:23.239Z,6.77
2019-03-16T04:38:54.078Z,6.83
2019-03-16T04:41:25.075Z,6.68
2019-03-16T04:43:56.181Z,6.69
2019-03-16T04:46:27.033Z,6.68
2019-03-16T04:48:58.137Z,6.67
2019-03-16T04:51:29.474Z,6.71
2019-03-16T04:54:00.668Z,6.63
2019-03-16T04:56:31.717Z,6.60
2019-03-16T04:59:02.840Z,6.67
2019-03-16T05:01:33.783Z,6.59
2019-03-16T05:04:04.819Z,6.58
2019-03-16T05:06:35.699Z,6.55
2019-03-16T05:09:07.495Z,6.58
2019-03-16T05:11:38.825Z,6.56
2019-03-16T05:14:10.762Z,6.48
2019-03-16T05:16:42.699Z,6.52
2019-03-16T05:19:13.625Z,6.50
2019-03-16T05:21:44.523Z,6.46
2019-03-16T05:24:15.471Z,6.52
2019-03-16T05:26:46.523Z,6.48
2019-03-16T05:29:17.452Z,6.58
2019-03-16T05:31:50.682Z,6.55
2019-03-16T05:34:21.126Z,6.55
2019-03-16T05:36:52.050Z,6.48
2019-03-16T05:39:23.570Z,6.58
2019-03-16T05:41:55.181Z,6.66
2019-03-16T05:44:26.125Z,6.67
2019-03-16T05:46:58.026Z,6.61
2019-03-16T05:49:29.184Z,6.58
2019-03-16T05:52:00.040Z,6.57
2019-03-16T05:54:31.864Z,6.64
2019-03-16T05:57:02.806Z,6.65
2019-03-16T05:59:34.033Z,6.59
2019-03-16T06:02:05.050Z,6.67
2019-03-16T06:04:36.226Z,6.75
2019-03-16T06:07:07.377Z,6.61
2019-03-16T06:09:38.521Z,6.72
2019-03-16T06:12:09.451Z,6.76
2019-03-16T06:14:40.360Z,6.76
2019-03-16T06:17:12.149Z,6.76
2019-03-16T06:19:43.573Z,6.80
2019-03-16T06:22:14.538Z,6.86
2019-03-16T06:24:45.521Z,7.00
2019-03-16T06:27:16.709Z,6.96
2019-03-16T06:29:47.618Z,6.80
2019-03-16T06:32:18.631Z,6.80
2019-03-16T06:34:49.528Z,6.95
2019-03-16T06:37:20.610Z,6.81
2019-03-16T06:39:51.535Z,6.94
2019-03-16T06:42:22.474Z,7.02
2019-03-16T06:44:53.306Z,7.04
2019-03-16T06:47:24.260Z,7.05
2019-03-16T06:49:55.186Z,7.08
2019-03-16T06:52:26.555Z,7.02
2019-03-16T06:54:57.560Z,7.05
2019-03-16T06:57:28.441Z,7.17
2019-03-16T06:59:59.960Z,7.17
2019-03-16T07:02:31.253Z,7.11
2019-03-16T07:05:04.376Z,7.17
2019-03-16T07:07:36.387Z,7.22
2019-03-16T07:10:08.386Z,7.25
2019-03-16T07:12:39.365Z,7.25
2019-03-16T07:15:10.352Z,7.26
2019-03-16T07:17:41.571Z,7.21
2019-03-16T07:20:13.648Z,7.21
2019-03-16T07:22:44.714Z,7.03
2019-03-16T07:25:16.022Z,7.09
2019-03-16T07:27:46.973Z,6.90
2019-03-16T07:30:18.803Z,7.00
2019-03-16T07:32:49.767Z,6.82
2019-03-16T07:35:20.982Z,6.74
2019-03-16T07:37:51.843Z,6.69
2019-03-16T07:40:22.764Z,6.73
2019-03-16T07:42:53.627Z,6.77
2019-03-16T07:45:24.535Z,6.71
2019-03-16T07:47:55.479Z,6.59
2019-03-16T07:53:02.995Z,6.40
2019-03-16T07:55:35.157Z,6.16
2019-03-16T07:58:07.501Z,6.05
2019-03-16T08:00:38.441Z,6.05
2019-03-16T08:03:09.412Z,6.10
2019-03-16T08:05:40.367Z,5.91
2019-03-16T08:08:11.343Z,5.85
2019-03-16T08:10:42.500Z,5.83
2019-03-16T08:13:14.417Z,5.74
2019-03-16T08:15:45.926Z,5.62
2019-03-16T08:18:16.872Z,5.67
2019-03-16T08:20:47.837Z,5.67
2019-03-16T08:23:18.743Z,5.59
2019-03-16T08:25:50.893Z,5.43
2019-03-16T08:28:21.806Z,5.50
2019-03-16T08:30:52.642Z,5.38
2019-03-16T08:33:23.838Z,5.58
2019-03-16T08:35:55.075Z,5.48
2019-03-16T08:38:25.945Z,5.55
2019-03-16T08:40:56.816Z,5.60
2019-03-16T08:43:27.695Z,5.40
2019-03-16T08:45:58.522Z,5.62
2019-03-16T08:48:29.429Z,5.28
2019-03-16T08:51:00.266Z,5.47
2019-03-16T08:53:31.126Z,5.24
2019-03-16T08:56:02.049Z,5.43
2019-03-16T08:58:34.779Z,5.43
2019-03-16T09:01:05.609Z,5.28
2019-03-16T09:03:43.522Z,5.25
2019-03-16T09:06:09.181Z,5.38
2019-03-16T09:08:40.043Z,5.36
2019-03-16T09:11:10.898Z,5.31
2019-03-16T09:13:41.946Z,5.40
2019-03-16T09:16:12.971Z,5.21
2019-03-16T09:18:44.057Z,5.06
2019-03-16T09:21:15.466Z,5.27
2019-03-16T09:23:46.468Z,5.37
2019-03-16T09:26:18.011Z,5.24
2019-03-16T09:28:59.635Z,5.36
2019-03-16T09:31:21.786Z,5.41
2019-03-16T09:33:52.926Z,5.50
2019-03-16T09:36:23.767Z,5.54
2019-03-16T09:38:54.628Z,5.24
2019-03-16T09:41:25.527Z,5.52
2019-03-16T09:43:56.640Z,5.58
2019-03-16T09:46:27.525Z,5.64
2019-03-16T09:48:58.658Z,5.54
2019-03-16T09:51:29.488Z,5.65
2019-03-16T09:54:00.425Z,6.13
2019-03-16T09:56:32.021Z,5.89
2019-03-16T09:59:02.866Z,5.88
2019-03-16T10:01:35.071Z,5.90
2019-03-16T10:04:05.916Z,5.81
2019-03-16T10:06:37.089Z,5.71
2019-03-16T10:09:09.107Z,6.02
2019-03-16T10:11:39.957Z,6.09
2019-03-16T10:14:10.780Z,6.12
2019-03-16T10:16:41.712Z,6.34
2019-03-16T10:19:14.051Z,6.25
2019-03-16T10:21:45.216Z,6.00
2019-03-16T10:24:16.048Z,6.00
2019-03-16T10:26:47.154Z,6.14
2019-03-16T10:29:18.411Z,6.21
2019-03-16T10:31:49.298Z,6.36
2019-03-16T10:34:20.152Z,5.90
2019-03-16T10:36:53.378Z,6.10
2019-03-16T10:39:24.489Z,6.21
2019-03-16T10:41:55.691Z,6.31
2019-03-16T10:44:26.519Z,6.31
2019-03-16T10:46:57.395Z,6.27
2019-03-16T10:49:28.715Z,6.09
2019-03-16T10:52:00.011Z,6.23
2019-03-16T10:54:31.099Z,6.38
2019-03-16T10:57:04.275Z,6.50
2019-03-16T10:59:37.300Z,6.56
2019-03-16T11:02:08.600Z,6.38
2019-03-16T11:04:39.417Z,6.24
2019-03-16T11:07:10.246Z,6.08
2019-03-16T11:09:41.572Z,6.30
2019-03-16T11:12:12.396Z,6.31
2019-03-16T11:14:43.382Z,6.45
2019-03-16T11:17:14.428Z,6.21
2019-03-16T11:19:46.003Z,6.37
2019-03-16T11:22:16.847Z,6.28
2019-03-16T11:24:48.267Z,5.83
2019-03-16T11:27:19.605Z,6.04
2019-03-16T11:29:50.713Z,5.86
2019-03-16T11:32:21.912Z,6.16
2019-03-16T11:34:52.759Z,6.16
2019-03-16T11:37:24.767Z,5.92
2019-03-16T11:39:55.948Z,6.02
2019-03-16T11:42:26.781Z,6.10
2019-03-16T11:44:57.721Z,6.12
2019-03-16T11:47:31.344Z,6.00
2019-03-16T11:50:04.258Z,5.92
2019-03-16T11:52:37.912Z,6.09
2019-03-16T11:55:09.205Z,6.02
2019-03-16T11:57:40.276Z,6.06
2019-03-16T12:00:11.289Z,5.99
2019-03-16T12:02:42.445Z,5.88
2019-03-16T12:05:13.507Z,5.81
2019-03-16T12:07:44.784Z,5.98
2019-03-16T12:10:16.420Z,6.03
2019-03-16T12:12:50.423Z,6.10
2019-03-16T12:15:21.379Z,6.01
2019-03-16T12:17:52.445Z,6.04
2019-03-16T12:20:23.416Z,5.98
2019-03-16T12:22:54.285Z,6.05
2019-03-16T12:25:25.271Z,6.13
2019-03-16T12:27:56.132Z,6.31
2019-03-16T12:30:27.124Z,6.26
2019-03-16T12:32:57.967Z,6.33
2019-03-16T12:35:28.917Z,6.41
2019-03-16T12:38:01.977Z,6.31
2019-03-16T12:40:36.301Z,6.44
2019-03-16T12:43:07.283Z,6.58
2019-03-16T12:45:38.147Z,6.48
2019-03-16T12:48:09.388Z,6.61
2019-03-16T12:50:41.657Z,6.61
2019-03-16T12:53:13.176Z,6.80
2019-03-16T12:55:44.332Z,6.81
2019-03-16T12:58:15.317Z,6.92
2019-03-16T13:00:46.358Z,6.99
2019-03-16T13:03:17.298Z,6.89
2019-03-16T13:05:48.173Z,7.09
2019-03-16T13:08:19.902Z,6.99
2019-03-16T13:10:50.759Z,7.14
2019-03-16T13:13:21.827Z,7.29
2019-03-16T13:15:52.875Z,7.48
2019-03-16T13:18:23.794Z,7.52
2019-03-16T13:21:01.222Z,7.56
2019-03-16T13:23:39.535Z,7.63
2019-03-16T13:26:14.115Z,7.64
2019-03-16T13:28:44.966Z,7.72
2019-03-16T13:31:15.936Z,7.98
2019-03-16T13:33:47.809Z,8.06
2019-03-16T13:36:18.668Z,8.23
2019-03-16T13:38:49.979Z,8.32
2019-03-16T13:41:21.348Z,8.36
2019-03-16T13:43:52.391Z,8.56
2019-03-16T13:46:23.513Z,8.63
2019-03-16T13:48:54.726Z,8.77
2019-03-16T13:51:25.541Z,9.10
2019-03-16T13:53:56.655Z,9.26
2019-03-16T13:56:27.597Z,9.37
2019-03-16T13:58:58.791Z,9.48
2019-03-16T14:01:29.673Z,9.60
2019-03-16T14:04:03.056Z,9.61
2019-03-16T14:06:33.470Z,9.75
2019-03-16T14:09:06.628Z,9.75
2019-03-16T14:11:41.135Z,9.80
2019-03-16T14:14:11.622Z,9.90
2019-03-16T14:16:42.510Z,10.01
2019-03-16T14:19:13.397Z,10.04
2019-03-16T14:21:44.440Z,10.09
2019-03-16T14:24:15.802Z,10.15
2019-03-16T14:26:46.977Z,10.13
2019-03-16T14:29:18.124Z,10.15
2019-03-16T14:31:51.265Z,10.12
2019-03-16T14:34:22.137Z,10.16
2019-03-16T14:36:53.113Z,10.27
2019-03-16T14:39:23.995Z,10.26
2019-03-16T14:41:55.232Z,10.22
2019-03-16T14:44:26.737Z,10.33
2019-03-16T14:46:57.596Z,10.32
2019-03-16T14:49:28.521Z,10.36
2019-03-16T14:51:59.643Z,10.36
2019-03-16T14:54:30.557Z,10.43
2019-03-16T14:57:02.076Z,10.53
2019-03-16T14:59:34.300Z,10.49
2019-03-16T15:02:05.228Z,10.55
2019-03-16T15:04:36.309Z,10.59
2019-03-16T15:07:07.165Z,10.62
2019-03-16T15:09:38.015Z,10.62
2019-03-16T15:12:08.923Z,10.70
2019-03-16T15:14:39.939Z,10.64
2019-03-16T15:17:10.920Z,10.67
2019-03-16T15:19:42.079Z,10.68
2019-03-16T15:22:13.429Z,10.65
2019-03-16T15:24:44.278Z,10.67
2019-03-16T15:27:16.062Z,10.60
2019-03-16T15:29:47.381Z,10.56
2019-03-16T15:32:18.450Z,10.73
2019-03-16T15:34:49.375Z,10.61
2019-03-16T15:37:20.913Z,10.61
2019-03-16T15:39:52.346Z,10.60
2019-03-16T15:42:23.305Z,10.73
2019-03-16T15:44:54.255Z,10.71
2019-03-16T15:47:25.228Z,10.67
2019-03-16T15:49:58.495Z,10.66
2019-03-16T15:52:29.110Z,10.59
2019-03-16T15:55:00.469Z,10.61
2019-03-16T15:57:31.717Z,10.69
2019-03-16T16:00:02.539Z,10.71
2019-03-16T16:02:34.901Z,10.72
2019-03-16T16:05:06.179Z,10.65
2019-03-16T16:07:37.086Z,10.68
2019-03-16T16:10:09.306Z,10.70
2019-03-16T16:12:40.433Z,10.68
2019-03-16T16:15:11.540Z,10.73
2019-03-16T16:17:42.448Z,10.77
2019-03-16T16:20:13.457Z,10.70
2019-03-16T16:22:44.364Z,10.70
2019-03-16T16:25:15.572Z,10.67
2019-03-16T16:27:46.418Z,10.63
2019-03-16T16:30:17.357Z,10.61
2019-03-16T16:32:48.249Z,10.62
2019-03-16T16:35:21.031Z,10.73
2019-03-16T16:37:51.933Z,10.80
2019-03-16T16:40:23.270Z,10.67
2019-03-16T16:42:54.597Z,10.67
2019-03-16T16:45:25.500Z,10.67
2019-03-16T16:47:56.589Z,10.66
2019-03-16T16:50:27.478Z,10.52
2019-03-16T16:52:58.689Z,10.53
2019-03-16T16:55:29.635Z,10.49
2019-03-16T16:58:00.465Z,10.48
2019-03-16T17:00:31.796Z,10.45
2019-03-16T17:03:02.977Z,10.45
2019-03-16T17:05:36.761Z,10.56
2019-03-16T17:08:07.605Z,10.38
2019-03-16T17:10:38.885Z,10.61
2019-03-16T17:13:09.817Z,10.57
2019-03-16T17:15:40.938Z,10.67
2019-03-16T17:18:12.221Z,10.67
2019-03-16T17:20:43.130Z,10.68
2019-03-16T17:23:14.022Z,10.68
2019-03-16T17:25:45.102Z,10.60
2019-03-16T17:28:16.325Z,10.65
2019-03-16T17:30:47.170Z,10.60
2019-03-16T17:33:18.118Z,10.51
2019-03-16T17:35:49.278Z,10.53
2019-03-16T17:38:20.167Z,10.55
2019-03-16T17:40:51.104Z,10.45
2019-03-16T17:43:22.024Z,10.57
2019-03-16T17:45:53.021Z,10.57
2019-03-16T17:48:24.650Z,10.51
2019-03-16T17:50:55.795Z,10.55
2019-03-16T17:53:26.667Z,10.48
2019-03-16T17:55:57.835Z,10.49
2019-03-16T17:58:29.006Z,10.44
2019-03-16T18:00:59.863Z,10.35
2019-03-16T18:03:30.819Z,10.47
2019-03-16T18:06:04.794Z,10.52
2019-03-16T18:08:36.068Z,10.49
2019-03-16T18:11:07.365Z,10.46
2019-03-16T18:13:38.235Z,10.41
2019-03-16T18:16:09.092Z,10.64
2019-03-16T18:18:39.932Z,10.60
2019-03-16T18:21:10.837Z,10.53
2019-03-16T18:23:41.686Z,10.50
2019-03-16T18:26:12.654Z,10.54
2019-03-16T18:28:43.764Z,10.59
2019-03-16T18:31:14.811Z,10.50
2019-03-16T18:33:45.708Z,10.65
2019-03-16T18:36:16.856Z,10.69
2019-03-16T18:38:47.785Z,10.76
2019-03-16T18:41:18.760Z,10.69
2019-03-16T18:43:49.833Z,10.72
2019-03-16T18:46:21.307Z,10.84
2019-03-16T18:48:52.252Z,10.87
2019-03-16T18:51:23.139Z,10.80
2019-03-16T18:53:53.980Z,10.82
2019-03-16T18:56:25.526Z,10.81
2019-03-16T18:58:56.416Z,10.81
2019-03-16T19:01:27.502Z,10.75
2019-03-16T19:03:58.424Z,10.85
2019-03-16T19:06:30.367Z,10.84
2019-03-16T19:09:02.758Z,10.80
2019-03-16T19:11:37.451Z,10.86
2019-03-16T19:14:08.354Z,10.87
2019-03-16T19:16:39.486Z,10.72
2019-03-16T19:19:10.375Z,10.87
2019-03-16T19:21:41.463Z,10.85
2019-03-16T19:24:12.377Z,10.86
2019-03-16T19:26:43.452Z,10.79
2019-03-16T19:29:16.817Z,10.86
2019-03-16T19:31:48.005Z,10.85
2019-03-16T19:34:19.394Z,10.86
2019-03-16T19:36:50.804Z,10.86
2019-03-16T19:39:24.999Z,10.90
2019-03-16T19:41:55.619Z,10.88
2019-03-16T19:44:26.568Z,10.89
2019-03-16T19:46:57.573Z,10.82
2019-03-16T19:49:28.450Z,10.83
2019-03-16T19:51:59.687Z,10.83
2019-03-16T19:54:30.700Z,10.89
2019-03-16T19:57:15.425Z,10.89
2019-03-16T19:59:38.716Z,10.85
2019-03-16T20:02:09.820Z,10.92
2019-03-16T20:04:40.859Z,10.84
2019-03-16T20:07:19.189Z,10.84
2019-03-16T20:09:44.938Z,10.75
2019-03-16T20:12:16.512Z,10.74
2019-03-16T20:14:47.517Z,10.79
2019-03-16T20:17:18.976Z,10.85
2019-03-16T20:19:49.920Z,10.83
2019-03-16T20:22:21.081Z,10.76
2019-03-16T20:24:52.345Z,10.81
2019-03-16T20:27:23.372Z,10.84
2019-03-16T20:29:55.670Z,10.86
2019-03-16T20:32:27.565Z,10.86
2019-03-16T20:34:58.750Z,10.76
2019-03-16T20:37:29.964Z,10.85
2019-03-16T20:40:01.064Z,10.80
2019-03-16T20:42:31.967Z,10.85
2019-03-16T20:45:05.696Z,10.83
2019-03-16T20:47:36.617Z,10.90
2019-03-16T20:50:09.495Z,10.83
2019-03-16T20:52:40.592Z,10.86
2019-03-16T20:55:11.514Z,10.84
2019-03-16T20:57:42.387Z,10.82
2019-03-16T21:00:13.341Z,10.81
2019-03-16T21:02:44.399Z,10.89
2019-03-16T21:05:15.352Z,10.93
2019-03-16T21:07:46.374Z,10.87
2019-03-16T21:10:17.478Z,10.87
2019-03-16T21:12:48.565Z,10.80
2019-03-16T21:15:22.557Z,10.81
2019-03-16T21:17:55.793Z,10.80
2019-03-16T21:20:26.537Z,10.79
2019-03-16T21:22:57.516Z,10.91
2019-03-16T21:25:28.435Z,10.84
2019-03-16T21:28:00.991Z,10.82
2019-03-16T21:30:33.843Z,10.81
2019-03-16T21:33:04.681Z,10.80
2019-03-16T21:35:35.611Z,10.79
2019-03-16T21:38:06.591Z,10.76
2019-03-16T21:40:38.704Z,10.78
2019-03-16T21:43:09.689Z,10.78
2019-03-16T21:45:40.575Z,10.68
2019-03-16T21:48:11.647Z,10.72
2019-03-16T21:50:42.583Z,10.73
2019-03-16T21:53:13.495Z,10.74
2019-03-16T21:55:44.560Z,10.73
2019-03-16T21:58:15.577Z,10.70
2019-03-16T22:00:46.563Z,10.73
2019-03-16T22:03:17.449Z,10.71
2019-03-16T22:05:48.343Z,10.74
2019-03-16T22:08:20.147Z,10.70
2019-03-16T22:10:51.320Z,10.69
2019-03-16T22:13:22.444Z,10.66
2019-03-16T22:15:53.414Z,10.67
2019-03-16T22:18:24.767Z,10.76
2019-03-16T22:20:55.601Z,10.80
2019-03-16T22:23:26.454Z,10.68
2019-03-16T22:25:59.736Z,10.64
2019-03-16T22:28:30.585Z,10.65
2019-03-16T22:31:03.824Z,10.60
2019-03-16T22:33:35.030Z,10.57
2019-03-16T22:36:05.884Z,10.54
2019-03-16T22:38:36.784Z,10.50
2019-03-16T22:41:07.936Z,10.47
2019-03-16T22:43:38.735Z,10.43
2019-03-16T22:46:10.239Z,10.42
2019-03-16T22:48:41.394Z,10.40
2019-03-16T22:51:12.800Z,10.48
2019-03-16T22:53:43.640Z,10.38
2019-03-16T22:56:14.553Z,10.43
2019-03-16T22:58:45.491Z,10.46
2019-03-16T23:01:16.660Z,10.34
2019-03-16T23:03:47.910Z,10.43
2019-03-16T23:06:18.805Z,10.38
2019-03-16T23:08:51.176Z,10.36
2019-03-16T23:11:22.005Z,10.27
2019-03-16T23:13:52.931Z,10.28
2019-03-16T23:16:24.062Z,10.32
2019-03-16T23:18:54.956Z,10.30
2019-03-16T23:21:26.382Z,10.17
2019-03-16T23:23:57.501Z,10.17
2019-03-16T23:26:38.031Z,10.20
2019-03-16T23:29:01.556Z,10.13
2019-03-16T23:31:32.425Z,10.10
2019-03-16T23:34:18.336Z,10.14
2019-03-16T23:36:38.557Z,10.16
2019-03-16T23:39:09.510Z,10.11
2019-03-16T23:41:40.339Z,10.19
2019-03-16T23:44:11.654Z,10.21
2019-03-16T23:46:42.578Z,10.20
2019-03-16T23:49:14.852Z,10.22
2019-03-16T23:51:45.998Z,10.21
2019-03-16T23:54:16.876Z,10.29
2019-03-16T23:56:47.835Z,10.29
2019-03-16T23:59:18.740Z,10.26
